Alexander Mills, North Carolina
Current Conditions -  °F | °C
As of 8:15 AM on Monday 22 Dec 2014 (Local Time) from KFQD Reporting Station
Drizzle Drizzle  
Wind Chill: 36°   Ceiling: 400
Heat Index: 39°   Visibility: 1.2mi
Dew Point: 39°   Wind: 5mph
Humidity: 99%   Direction: 30°NNE
Pressure: 30.14"   Gusts: NA
Location:  35.27°N, 81.8676°W
Report Text: KFQD 221315Z AUTO 03004KT 1 1/4SM DZ OVC004 04/04 A3014 RMK AO2 T00410040
Loading
Personal Weather Stations






























Interactive Weather Map New forecast layout! Learn more

10-Day Weather Forecast

Advertisements
Track Severe Weather on mobile